PASK

Selawik Airport

Airport
ICAO code
PASK
IATA Code
WLK
Summary
ICAO Region
NAM
ICAO Territory
Location

, Alaska

Serving
Selawik
Elevation
17 ft
Coordinates
66° 35' 60" N , 159° 59' 9" W
Metar
PASK 142156Z AUTO 26011KT 10SM CLR 11/04 A3029 RMK AO2 SLP255 T01060039

Runways

Designator Length Width Surface Rops
9/27 810 18 GVL No/No
4/22 915 18 GRAVEL-G No/No

Airport map

Aerial View

SKYbrary Partners:

Safety knowledge contributed by: